Time;durP1;ratioP1;P1;durP2;ratioP2;P2;SDS_P1;SDS_P2;PMS_P1;PMS_P2;Temp;Humidity;BMP_temperature;BMP_pressure;BME280_temperature;BME280_humidity;BME280_pressure;Samples;Min_cycle;Max_cycle;Signal;HPM_P1;HPM_P2
2021/03/16 00:01:19;;;;;;;1999.90;999.90;;;5.90;99.90;;;;;;4957760;29;20180;-81
2021/03/16 00:03:45;;;;;;;1999.90;999.90;;;6.00;99.90;;;;;;4957494;28;20217;-81
2021/03/16 00:06:11;;;;;;;1999.90;999.90;;;6.00;99.90;;;;;;4956966;29;20271;-81
2021/03/16 00:08:36;;;;;;;1999.90;999.90;;;6.00;99.90;;;;;;4957610;29;20199;-81
2021/03/16 00:11:02;;;;;;;1999.90;999.90;;;6.00;99.90;;;;;;4957403;29;20167;-81
2021/03/16 00:13:28;;;;;;;1999.90;999.90;;;6.00;99.90;;;;;;4957704;29;20222;-81
2021/03/16 00:15:53;;;;;;;1999.90;999.90;;;6.10;99.90;;;;;;4957536;29;20172;-80
2021/03/16 00:18:19;;;;;;;1999.90;999.90;;;6.10;99.90;;;;;;4957917;29;20238;-81
2021/03/16 00:20:46;;;;;;;1999.90;999.90;;;6.10;99.90;;;;;;4957645;29;20588;-81
2021/03/16 00:23:12;;;;;;;1999.90;999.90;;;6.10;99.90;;;;;;4957720;28;20191;-81
2021/03/16 00:25:38;;;;;;;1999.90;999.90;;;6.00;99.90;;;;;;4957610;28;20176;-81
2021/03/16 00:28:05;;;;;;;1999.90;999.90;;;6.00;99.90;;;;;;4957929;29;20159;-82
2021/03/16 00:30:32;;;;;;;1999.90;999.90;;;6.00;99.90;;;;;;4957396;28;20172;-81
2021/03/16 00:32:57;;;;;;;1999.90;999.90;;;5.90;99.90;;;;;;4957820;29;20225;-81
2021/03/16 00:35:23;;;;;;;1999.90;999.90;;;6.00;99.90;;;;;;4957807;29;20160;-81
2021/03/16 00:37:49;;;;;;;1999.90;999.90;;;6.00;99.90;;;;;;4957165;29;20345;-81
2021/03/16 00:40:15;;;;;;;1999.90;999.90;;;6.00;99.90;;;;;;4940269;29;20507;-81
2021/03/16 00:42:41;;;;;;;1999.90;999.90;;;6.00;99.90;;;;;;4940618;29;20172;-81
2021/03/16 00:45:08;;;;;;;1999.90;999.90;;;6.00;99.90;;;;;;4957135;29;20171;-81
2021/03/16 00:47:34;;;;;;;1999.90;999.90;;;6.00;99.90;;;;;;4957607;29;20179;-82
2021/03/16 00:50:02;;;;;;;1999.90;999.90;;;6.00;99.90;;;;;;4957653;29;20172;-81
2021/03/16 00:52:28;;;;;;;1999.90;999.90;;;6.00;99.90;;;;;;4958169;29;20212;-82
2021/03/16 00:54:53;;;;;;;1999.90;999.90;;;6.00;99.90;;;;;;4957437;29;20675;-81
2021/03/16 00:57:19;;;;;;;1999.90;999.90;;;6.00;99.90;;;;;;4959979;28;20176;-81
2021/03/16 00:59:44;;;;;;;1999.90;999.90;;;6.00;99.90;;;;;;4961328;29;20168;-81
2021/03/16 01:02:10;;;;;;;1999.90;999.90;;;6.00;99.90;;;;;;4943846;29;20168;-81
2021/03/16 01:04:36;;;;;;;1999.90;999.90;;;6.10;99.90;;;;;;4943937;29;20192;-81
2021/03/16 01:07:01;;;;;;;1999.90;999.90;;;6.10;99.90;;;;;;4961323;29;20267;-81
2021/03/16 01:09:27;;;;;;;1999.90;999.90;;;6.10;99.90;;;;;;4961560;29;20541;-82
2021/03/16 01:11:52;;;;;;;1999.90;999.90;;;6.10;99.90;;;;;;4961513;29;20631;-81
2021/03/16 01:14:21;;;;;;;1999.90;999.90;;;6.00;99.90;;;;;;4960968;29;20671;-81
2021/03/16 01:16:46;;;;;;;1999.90;999.90;;;6.10;99.90;;;;;;4960602;28;20540;-80
2021/03/16 01:19:12;;;;;;;1999.90;999.90;;;6.10;99.90;;;;;;4961104;29;20160;-81
2021/03/16 01:21:38;;;;;;;1999.90;999.90;;;6.10;99.90;;;;;;4961086;29;20172;-81
2021/03/16 01:24:03;;;;;;;1999.90;999.90;;;6.10;99.90;;;;;;4960461;28;20604;-81
2021/03/16 01:26:29;;;;;;;1999.90;999.90;;;6.10;99.90;;;;;;4960197;28;20535;-81
2021/03/16 01:28:55;;;;;;;1999.90;999.90;;;6.10;99.90;;;;;;4960605;29;20407;-81
2021/03/16 01:31:20;;;;;;;1999.90;999.90;;;6.10;99.90;;;;;;4960739;29;20204;-81
2021/03/16 01:33:46;;;;;;;1999.90;999.90;;;6.10;99.90;;;;;;4960155;29;20202;-81
2021/03/16 01:36:11;;;;;;;1999.90;999.90;;;6.10;99.90;;;;;;4960155;29;20224;-81
2021/03/16 01:38:37;;;;;;;1999.90;999.90;;;6.10;99.90;;;;;;4959720;29;20160;-81
2021/03/16 01:41:03;;;;;;;1999.90;999.90;;;6.10;99.90;;;;;;4959967;29;20168;-81
2021/03/16 01:43:31;;;;;;;1999.90;999.90;;;6.10;99.90;;;;;;4959771;29;20187;-81
2021/03/16 01:45:57;;;;;;;1999.90;999.90;;;6.00;99.90;;;;;;4960093;29;20632;-81
2021/03/16 01:48:32;;;;;;;1999.90;999.90;;;6.00;99.90;;;;;;4942448;29;20556;-81
2021/03/16 01:51:01;;;;;;;1999.90;999.90;;;6.00;99.90;;;;;;4959633;29;20166;-81
2021/03/16 01:53:28;;;;;;;1999.90;999.90;;;6.00;99.90;;;;;;4959870;28;20239;-81
2021/03/16 01:55:56;;;;;;;1999.90;999.90;;;6.00;99.90;;;;;;4959308;29;20263;-81
2021/03/16 01:58:22;;;;;;;1999.90;999.90;;;6.00;99.90;;;;;;4959498;28;20296;-81
2021/03/16 02:00:47;;;;;;;1999.90;999.90;;;6.00;99.90;;;;;;4959557;29;20197;-82
2021/03/16 02:03:13;;;;;;;1999.90;999.90;;;6.00;99.90;;;;;;4959282;28;20652;-81
2021/03/16 02:05:40;;;;;;;1999.90;999.90;;;6.00;99.90;;;;;;4959754;28;20652;-81
2021/03/16 02:08:31;;;;;;;1999.90;999.90;;;6.00;99.90;;;;;;4958868;28;20173;-81
2021/03/16 02:11:09;;;;;;;1999.90;999.90;;;6.10;99.90;;;;;;4959386;29;20227;-81
2021/03/16 02:14:05;;;;;;;1999.90;999.90;;;6.10;99.90;;;;;;4959328;28;20234;-81
2021/03/16 02:16:38;;;;;;;1999.90;999.90;;;6.10;99.90;;;;;;4958929;29;20176;-81
2021/03/16 02:19:14;;;;;;;1999.90;999.90;;;6.10;99.90;;;;;;4941566;29;20168;-82
2021/03/16 02:21:41;;;;;;;1999.90;999.90;;;6.10;99.90;;;;;;4959824;29;20160;-82
2021/03/16 02:24:08;;;;;;;1999.90;999.90;;;6.00;99.90;;;;;;4959450;29;20610;-81
2021/03/16 02:27:01;;;;;;;1999.90;999.90;;;6.00;99.90;;;;;;4958984;28;20172;-81
2021/03/16 02:29:32;;;;;;;1999.90;999.90;;;6.10;99.90;;;;;;4959616;29;20206;-81
2021/03/16 02:32:04;;;;;;;1999.90;999.90;;;6.10;99.90;;;;;;4959191;29;20179;-81
2021/03/16 02:34:33;;;;;;;1999.90;999.90;;;6.10;99.90;;;;;;4959923;29;20203;-81
2021/03/16 02:37:03;;;;;;;1999.90;999.90;;;6.10;99.90;;;;;;4941850;29;20251;-81
2021/03/16 02:39:29;;;;;;;1999.90;999.90;;;6.10;99.90;;;;;;4942276;29;20172;-81
2021/03/16 02:41:56;;;;;;;1999.90;999.90;;;6.10;99.90;;;;;;4959230;29;20682;-81
2021/03/16 02:44:22;;;;;;;1999.90;999.90;;;6.10;99.90;;;;;;4958903;29;20192;-81
2021/03/16 02:46:49;;;;;;;1999.90;999.90;;;6.00;99.90;;;;;;4959965;28;20697;-81
2021/03/16 02:49:17;;;;;;;1999.90;999.90;;;6.00;99.90;;;;;;4959648;29;20175;-81
2021/03/16 02:51:44;;;;;;;1999.90;999.90;;;6.10;99.90;;;;;;4959369;29;20168;-81
2021/03/16 02:54:11;;;;;;;1999.90;999.90;;;6.10;99.90;;;;;;4959296;28;20187;-81
2021/03/16 02:56:38;;;;;;;1999.90;999.90;;;6.00;99.90;;;;;;4959418;29;20210;-81
2021/03/16 02:59:08;;;;;;;1999.90;999.90;;;6.00;99.90;;;;;;4960403;29;20239;-81
2021/03/16 03:01:38;;;;;;;1999.90;999.90;;;6.00;99.90;;;;;;4960442;29;20184;-81
2021/03/16 03:04:08;;;;;;;1999.90;999.90;;;6.00;99.90;;;;;;4960740;29;20192;-81
2021/03/16 03:06:40;;;;;;;1999.90;999.90;;;6.00;99.90;;;;;;5042414;23;20290;-82
2021/03/16 03:09:08;;;;;;;1999.90;999.90;;;6.00;99.90;;;;;;4978412;28;20206;-80
2021/03/16 03:11:34;;;;;;;1999.90;999.90;;;6.00;99.90;;;;;;4960863;28;20520;-82
2021/03/16 03:14:04;;;;;;;1999.90;999.90;;;6.00;99.90;;;;;;4978016;28;20278;-81
2021/03/16 03:16:30;;;;;;;1999.90;999.90;;;6.00;99.90;;;;;;4978342;28;20182;-82
2021/03/16 03:18:56;;;;;;;1999.90;999.90;;;6.00;99.90;;;;;;4960152;28;20168;-82
2021/03/16 03:21:37;;;;;;;1999.90;999.90;;;6.00;99.90;;;;;;4978110;28;20627;-80
2021/03/16 03:24:06;;;;;;;1999.90;999.90;;;6.10;99.90;;;;;;4978153;28;20203;-80
2021/03/16 03:26:55;;;;;;;1999.90;999.90;;;6.00;99.90;;;;;;4978787;28;20163;-80
2021/03/16 03:29:26;;;;;;;1999.90;999.90;;;6.00;99.90;;;;;;4961097;28;20556;-82
2021/03/16 03:31:53;;;;;;;1999.90;999.90;;;6.00;99.90;;;;;;4978029;28;20190;-81
2021/03/16 03:34:20;;;;;;;1999.90;999.90;;;5.90;99.90;;;;;;4960785;28;20194;-80
2021/03/16 03:36:51;;;;;;;1999.90;999.90;;;5.90;99.90;;;;;;4978337;28;20155;-81
2021/03/16 03:39:17;;;;;;;1999.90;999.90;;;5.90;99.90;;;;;;4961337;28;20155;-80
2021/03/16 03:41:43;;;;;;;1999.90;999.90;;;5.90;99.90;;;;;;4978056;28;20253;-80
2021/03/16 03:44:14;;;;;;;1999.90;999.90;;;6.00;99.90;;;;;;4977881;28;20205;-82
2021/03/16 03:46:41;;;;;;;1999.90;999.90;;;5.90;99.90;;;;;;4977939;28;20151;-82
2021/03/16 03:49:08;;;;;;;1999.90;999.90;;;5.90;99.90;;;;;;4960572;28;20317;-82
2021/03/16 03:51:35;;;;;;;1999.90;999.90;;;5.90;99.90;;;;;;4978077;28;20163;-82
2021/03/16 03:54:02;;;;;;;1999.90;999.90;;;6.00;99.90;;;;;;4977818;28;20540;-82
2021/03/16 03:56:29;;;;;;;1999.90;999.90;;;5.90;99.90;;;;;;4977455;28;20283;-82
2021/03/16 03:58:59;;;;;;;1999.90;999.90;;;5.90;99.90;;;;;;4960279;28;20171;-82
2021/03/16 04:01:27;;;;;;;1999.90;999.90;;;5.90;99.90;;;;;;4978721;28;20148;-83
2021/03/16 04:03:54;;;;;;;1999.90;999.90;;;5.80;99.90;;;;;;4960715;28;20540;-82
2021/03/16 04:06:22;;;;;;;1999.90;999.90;;;5.90;99.90;;;;;;4960175;28;20182;-82
2021/03/16 04:08:50;;;;;;;1999.90;999.90;;;5.80;99.90;;;;;;4960277;28;20173;-82
2021/03/16 04:11:19;;;;;;;1999.90;999.90;;;5.90;99.90;;;;;;4977776;28;20203;-82
2021/03/16 04:13:45;;;;;;;1999.90;999.90;;;5.90;99.90;;;;;;4959879;28;20210;-82
2021/03/16 04:16:12;;;;;;;1999.90;999.90;;;5.90;99.90;;;;;;4978396;28;20531;-81
2021/03/16 04:18:42;;;;;;;1999.90;999.90;;;5.90;99.90;;;;;;4961136;28;20168;-82
2021/03/16 04:21:07;;;;;;;1999.90;999.90;;;5.90;99.90;;;;;;4978404;28;20202;-82
2021/03/16 04:23:34;;;;;;;1999.90;999.90;;;5.90;99.90;;;;;;4977820;28;20274;-82
2021/03/16 04:26:00;;;;;;;1999.90;999.90;;;6.00;99.90;;;;;;4978063;28;20167;-82
2021/03/16 04:28:26;;;;;;;1999.90;999.90;;;6.00;99.90;;;;;;4977756;28;20203;-82
2021/03/16 04:30:54;;;;;;;1999.90;999.90;;;6.00;99.90;;;;;;4979911;28;20567;-81
2021/03/16 04:33:20;;;;;;;1999.90;999.90;;;6.00;99.90;;;;;;4981378;28;20195;-82
2021/03/16 04:35:47;;;;;;;1999.90;999.90;;;6.00;99.90;;;;;;4981179;28;20163;-82
2021/03/16 04:38:13;;;;;;;1999.90;999.90;;;6.00;99.90;;;;;;4981438;28;20167;-82
2021/03/16 04:40:40;;;;;;;1999.90;999.90;;;6.00;99.90;;;;;;4963837;28;20274;-82
2021/03/16 04:43:07;;;;;;;1999.90;999.90;;;6.00;99.90;;;;;;4981786;28;20194;-81
2021/03/16 04:45:35;;;;;;;1999.90;999.90;;;6.00;99.90;;;;;;4981342;28;20203;-82
2021/03/16 04:48:02;;;;;;;1999.90;999.90;;;6.10;99.90;;;;;;4981011;28;20171;-82
2021/03/16 04:50:28;;;;;;;1999.90;999.90;;;6.10;99.90;;;;;;4964008;28;20224;-82
2021/03/16 04:52:53;;;;;;;1999.90;999.90;;;6.00;99.90;;;;;;4980560;28;20708;-82
2021/03/16 04:55:20;;;;;;;1999.90;999.90;;;6.00;99.90;;;;;;4980630;28;20203;-82
2021/03/16 04:57:45;;;;;;;1999.90;999.90;;;6.00;99.90;;;;;;4980859;28;20222;-82
2021/03/16 05:00:11;;;;;;;1999.90;999.90;;;6.00;99.90;;;;;;4981271;28;20591;-82
2021/03/16 05:02:37;;;;;;;1999.90;999.90;;;6.00;99.90;;;;;;4963011;28;20690;-82
2021/03/16 05:05:05;;;;;;;1999.90;999.90;;;5.90;99.90;;;;;;4980924;28;20175;-82
2021/03/16 05:07:30;;;;;;;1999.90;999.90;;;6.00;99.90;;;;;;4980721;28;20419;-82
2021/03/16 05:09:56;;;;;;;1999.90;999.90;;;5.90;99.90;;;;;;4980710;28;20167;-82
2021/03/16 05:12:22;;;;;;;1999.90;999.90;;;5.90;99.90;;;;;;4980459;28;20163;-82
2021/03/16 05:14:50;;;;;;;1999.90;999.90;;;6.00;99.90;;;;;;4980978;28;20190;-82
2021/03/16 05:17:16;;;;;;;1999.90;999.90;;;6.00;99.90;;;;;;4980899;28;20262;-82
2021/03/16 05:19:42;;;;;;;1999.90;999.90;;;6.00;99.90;;;;;;4980664;28;20187;-82
2021/03/16 05:22:07;;;;;;;1999.90;999.90;;;5.90;99.90;;;;;;4981305;28;20771;-82
2021/03/16 05:24:33;;;;;;;1999.90;999.90;;;6.00;99.90;;;;;;4963807;28;20257;-82
2021/03/16 05:26:59;;;;;;;1999.90;999.90;;;6.00;99.90;;;;;;4980751;28;20164;-82
2021/03/16 05:29:24;;;;;;;1999.90;999.90;;;6.00;99.90;;;;;;4980245;28;20438;-82
2021/03/16 05:31:50;;;;;;;1999.90;999.90;;;6.00;99.90;;;;;;4980740;28;20212;-82
2021/03/16 05:34:16;;;;;;;1999.90;999.90;;;6.00;99.90;;;;;;4979976;28;20206;-82
2021/03/16 05:36:42;;;;;;;1999.90;999.90;;;6.00;99.90;;;;;;4980780;28;20223;-82
2021/03/16 05:39:08;;;;;;;1999.90;999.90;;;5.90;99.90;;;;;;4962679;28;20171;-82
2021/03/16 05:41:36;;;;;;;1999.90;999.90;;;5.90;99.90;;;;;;4961862;28;20410;-82
2021/03/16 05:44:02;;;;;;;1999.90;999.90;;;5.90;99.90;;;;;;4980213;28;20267;-82
2021/03/16 05:46:28;;;;;;;1999.90;999.90;;;5.90;99.90;;;;;;4980569;28;20167;-82
2021/03/16 05:49:01;;;;;;;1999.90;999.90;;;5.90;99.90;;;;;;4980025;28;20171;-82
2021/03/16 05:51:27;;;;;;;1999.90;999.90;;;6.00;99.90;;;;;;4979982;28;20768;-82
2021/03/16 05:53:53;;;;;;;1999.90;999.90;;;6.00;99.90;;;;;;4979287;28;20199;-82
2021/03/16 05:56:19;;;;;;;1999.90;999.90;;;6.00;99.90;;;;;;4979721;28;20195;-82
2021/03/16 05:58:45;;;;;;;1999.90;999.90;;;6.00;99.90;;;;;;4962898;28;20414;-82
2021/03/16 06:01:13;;;;;;;1999.90;999.90;;;6.00;99.90;;;;;;4962770;28;20171;-82
2021/03/16 06:03:39;;;;;;;1999.90;999.90;;;6.00;99.90;;;;;;4962639;28;20187;-82
2021/03/16 06:06:05;;;;;;;1999.90;999.90;;;6.00;99.90;;;;;;4979552;28;20536;-82
2021/03/16 06:08:32;;;;;;;1999.90;999.90;;;6.00;99.90;;;;;;4962155;28;20517;-82
2021/03/16 06:10:58;;;;;;;1999.90;999.90;;;6.00;99.90;;;;;;4979502;28;20234;-82
2021/03/16 06:13:25;;;;;;;1999.90;999.90;;;6.00;99.90;;;;;;4979494;28;20207;-82
2021/03/16 06:15:52;;;;;;;1999.90;999.90;;;6.00;99.90;;;;;;4962282;28;20171;-82
2021/03/16 06:18:26;;;;;;;1999.90;999.90;;;6.10;99.90;;;;;;4979746;28;20171;-82
2021/03/16 06:21:03;;;;;;;1999.90;999.90;;;6.10;99.90;;;;;;4979590;28;20654;-82
2021/03/16 06:23:31;;;;;;;1999.90;999.90;;;6.20;99.90;;;;;;4979457;28;20214;-82
2021/03/16 06:26:07;;;;;;;1999.90;999.90;;;6.10;99.90;;;;;;4962207;28;20171;-82
2021/03/16 06:28:36;;;;;;;1999.90;999.90;;;6.10;99.90;;;;;;4962350;28;20249;-82
2021/03/16 06:31:03;;;;;;;1999.90;999.90;;;6.20;99.90;;;;;;4979716;28;20171;-82
2021/03/16 06:33:31;;;;;;;1999.90;999.90;;;6.20;99.90;;;;;;4979214;28;20203;-82
2021/03/16 06:36:08;;;;;;;1999.90;999.90;;;6.20;99.90;;;;;;4965788;28;20631;-80
2021/03/16 06:38:39;;;;;;;1999.90;999.90;;;6.20;99.90;;;;;;4962887;28;20195;-82
2021/03/16 06:41:15;;;;;;;1999.90;999.90;;;6.30;99.90;;;;;;4979758;28;20152;-82
2021/03/16 06:43:42;;;;;;;1999.90;999.90;;;6.30;99.90;;;;;;4978537;28;20210;-82
2021/03/16 06:46:08;;;;;;;1999.90;999.90;;;6.30;99.90;;;;;;4961745;28;20273;-82
2021/03/16 06:48:36;;;;;;;1999.90;999.90;;;6.40;99.90;;;;;;4979101;28;20175;-82
2021/03/16 06:51:14;;;;;;;1999.90;999.90;;;6.40;99.90;;;;;;4979075;28;20527;-82
2021/03/16 06:53:39;;;;;;;1999.90;999.90;;;6.40;99.90;;;;;;4960467;28;20199;-82
2021/03/16 06:56:08;;;;;;;1999.90;999.90;;;6.40;99.90;;;;;;4961113;28;20254;-82
2021/03/16 06:58:35;;;;;;;1999.90;999.90;;;6.50;99.90;;;;;;4961217;28;20179;-82
2021/03/16 07:01:08;;;;;;;1999.90;999.90;;;6.40;99.90;;;;;;4961473;28;20171;-82
2021/03/16 07:03:36;;;;;;;1999.90;999.90;;;6.40;99.90;;;;;;4961753;28;20197;-82
2021/03/16 07:06:18;;;;;;;1999.90;999.90;;;6.50;99.90;;;;;;4978732;28;20187;-82
2021/03/16 07:08:45;;;;;;;1999.90;999.90;;;6.50;99.90;;;;;;4961512;28;20167;-82
2021/03/16 07:11:13;;;;;;;1999.90;999.90;;;6.50;99.90;;;;;;4961892;28;20182;-82
2021/03/16 07:13:40;;;;;;;1999.90;999.90;;;6.60;99.90;;;;;;4961049;28;20203;-82
2021/03/16 07:16:07;;;;;;;1999.90;999.90;;;6.60;99.90;;;;;;4961668;28;20754;-83
2021/03/16 07:18:36;;;;;;;1999.90;999.90;;;6.50;99.90;;;;;;4978254;28;20246;-82
2021/03/16 07:21:09;;;;;;;1999.90;999.90;;;6.50;99.90;;;;;;4979520;28;20528;-83
2021/03/16 07:23:48;;;;;;;1999.90;999.90;;;6.60;99.90;;;;;;4979098;28;20266;-82
2021/03/16 07:26:14;;;;;;;1999.90;999.90;;;6.60;99.90;;;;;;4978252;28;20710;-82
2021/03/16 07:28:40;;;;;;;1999.90;999.90;;;6.60;99.90;;;;;;4978639;28;20178;-82
2021/03/16 07:31:06;;;;;;;1999.90;999.90;;;6.60;99.90;;;;;;4977597;28;20642;-82
2021/03/16 07:33:33;;;;;;;1999.90;999.90;;;6.70;99.90;;;;;;4960205;28;20207;-79
2021/03/16 07:35:58;;;;;;;1999.90;999.90;;;6.80;99.90;;;;;;4977809;28;20167;-79
2021/03/16 07:38:24;;;;;;;1999.90;999.90;;;6.90;99.90;;;;;;4960761;28;20214;-82
2021/03/16 07:40:51;;;;;;;1999.90;999.90;;;6.90;99.90;;;;;;4977759;28;20198;-82
2021/03/16 07:43:17;;;;;;;1999.90;999.90;;;7.10;99.90;;;;;;4959876;28;20430;-81
2021/03/16 07:45:43;;;;;;;1999.90;999.90;;;7.00;99.90;;;;;;4958883;28;20175;-78
2021/03/16 07:48:21;;;;;;;1999.90;999.90;;;7.10;99.90;;;;;;4977506;28;20251;-80
2021/03/16 07:50:53;;;;;;;1999.90;999.90;;;7.10;99.90;;;;;;4977572;28;20414;-82
2021/03/16 07:53:29;;;;;;;1999.90;999.90;;;7.20;99.90;;;;;;4960282;28;20206;-82
2021/03/16 07:56:08;;;;;;;1999.90;999.90;;;7.30;99.90;;;;;;4977563;28;20583;-83
2021/03/16 07:58:44;;;;;;;1999.90;999.90;;;7.40;99.90;;;;;;4978192;28;20179;-80
2021/03/16 08:01:10;;;;;;;1999.90;999.90;;;7.50;99.90;;;;;;4960709;28;20155;-80
2021/03/16 08:03:36;;;;;;;1999.90;999.90;;;7.60;99.90;;;;;;4977806;28;20182;-80
2021/03/16 08:06:02;;;;;;;1999.90;999.90;;;7.60;99.90;;;;;;4977321;28;20197;-79
2021/03/16 08:08:38;;;;;;;1999.90;999.90;;;7.60;99.90;;;;;;4978157;28;20639;-80
2021/03/16 08:11:12;;;;;;;1999.90;999.90;;;7.70;99.90;;;;;;4961278;28;20394;-80
2021/03/16 08:13:39;;;;;;;1999.90;999.90;;;7.60;99.90;;;;;;4960040;28;20203;-80
2021/03/16 08:16:16;;;;;;;1999.90;999.90;;;7.60;99.90;;;;;;4977674;28;20195;-80
2021/03/16 08:18:47;;;;;;;1999.90;999.90;;;7.70;99.90;;;;;;4977370;28;20614;-80
2021/03/16 08:21:14;;;;;;;1999.90;999.90;;;7.80;99.90;;;;;;4958752;28;20164;-80
2021/03/16 08:23:40;;;;;;;1999.90;999.90;;;7.80;99.90;;;;;;4959058;28;20187;-80
2021/03/16 08:26:07;;;;;;;1999.90;999.90;;;7.80;99.90;;;;;;4975408;28;20219;-79
2021/03/16 08:28:34;;;;;;;1999.90;999.90;;;7.80;99.90;;;;;;4958595;28;20277;-79
2021/03/16 08:31:00;;;;;;;1999.90;999.90;;;7.80;99.90;;;;;;4959505;28;20174;-79
2021/03/16 08:33:27;;;;;;;1999.90;999.90;;;7.80;99.90;;;;;;4977351;28;20199;-80
2021/03/16 08:35:56;;;;;;;1999.90;999.90;;;7.80;99.90;;;;;;4977001;28;20438;-80
2021/03/16 08:38:27;;;;;;;1999.90;999.90;;;7.80;99.90;;;;;;4977406;28;20628;-79
2021/03/16 08:41:03;;;;;;;1999.90;999.90;;;7.90;99.90;;;;;;4977621;28;20183;-80
2021/03/16 08:43:29;;;;;;;1999.90;999.90;;;8.00;99.90;;;;;;4960178;28;20566;-80
2021/03/16 08:45:54;;;;;;;1999.90;999.90;;;8.00;99.90;;;;;;4977084;28;20178;-80
2021/03/16 08:48:25;;;;;;;1999.90;999.90;;;8.10;99.90;;;;;;4960821;28;20178;-79
2021/03/16 08:51:11;;;;;;;1999.90;999.90;;;8.10;99.90;;;;;;4959669;28;20176;-80
2021/03/16 08:53:36;;;;;;;1999.90;999.90;;;8.10;99.90;;;;;;4977118;28;20686;-79
2021/03/16 08:56:03;;;;;;;1999.90;999.90;;;8.10;99.90;;;;;;4959961;28;20182;-79
2021/03/16 08:58:28;;;;;;;1999.90;999.90;;;8.10;99.90;;;;;;4960439;28;20516;-80
2021/03/16 09:00:56;;;;;;;1999.90;999.90;;;8.20;99.90;;;;;;4959754;28;20195;-79
2021/03/16 09:03:30;;;;;;;1999.90;999.90;;;8.20;99.90;;;;;;4977069;28;20233;-80
2021/03/16 09:05:55;;;;;;;1999.90;999.90;;;8.30;99.90;;;;;;4959802;28;20187;-80
2021/03/16 09:08:22;;;;;;;1999.90;999.90;;;8.40;99.90;;;;;;4976966;28;20167;-80
2021/03/16 09:10:48;;;;;;;1999.90;999.90;;;8.50;99.90;;;;;;4976826;28;20254;-78
2021/03/16 09:13:27;;;;;;;1999.90;999.90;;;8.60;99.90;;;;;;4960301;28;20790;-79
2021/03/16 09:15:53;;;;;;;1999.90;999.90;;;8.60;99.90;;;;;;4977141;28;20191;-80
2021/03/16 09:18:21;;;;;;;1999.90;999.90;;;8.70;99.90;;;;;;4979059;28;20167;-80
2021/03/16 09:21:06;;;;;;;1999.90;999.90;;;8.80;99.90;;;;;;5032452;23;20215;-79
2021/03/16 09:23:32;;;;;;;1999.90;999.90;;;8.90;99.90;;;;;;4960217;29;20196;-79
2021/03/16 09:26:01;;;;;;;1999.90;999.90;;;8.90;99.90;;;;;;4941987;29;20175;-78
2021/03/16 09:29:07;;;;;;;1999.90;999.90;;;8.90;99.90;;;;;;4941055;29;20455;-78
2021/03/16 09:31:36;;;;;;;1999.90;999.90;;;8.90;99.90;;;;;;4941707;29;20176;-79
2021/03/16 09:34:02;;;;;;;1999.90;999.90;;;8.90;99.90;;;;;;5540909;23;20254;-79
2021/03/16 09:36:30;;;;;;;1999.90;999.90;;;8.90;99.90;;;;;;4978140;28;20194;-79
2021/03/16 09:39:00;;;;;;;1999.90;999.90;;;9.00;99.90;;;;;;4962786;28;20182;-79
2021/03/16 09:41:26;;;;;;;1999.90;999.90;;;9.10;99.90;;;;;;4980485;28;20175;-79
2021/03/16 09:43:52;;;;;;;1999.90;999.90;;;9.00;99.90;;;;;;4980124;28;20211;-79
2021/03/16 09:49:41;;;;;;;1999.90;999.90;;;8.80;99.90;;;;;;4919580;29;20169;-80
2021/03/16 09:52:19;;;;;;;1999.90;999.90;;;8.70;99.90;;;;;;4920731;29;20192;-79
2021/03/16 09:54:46;;;;;;;1999.90;999.90;;;8.70;99.90;;;;;;4919969;29;20203;-79
2021/03/16 09:57:14;;;;;;;1999.90;999.90;;;8.80;99.90;;;;;;4925911;28;20190;-77
2021/03/16 09:59:43;;;;;;;1999.90;999.90;;;8.90;99.90;;;;;;4979166;28;20714;-79
2021/03/16 10:05:23;;;;;;;1999.90;999.90;;;8.90;99.90;;;;;;5365770;23;20238;-79
2021/03/16 10:07:59;;;;;;;1999.90;999.90;;;9.00;99.90;;;;;;4959014;29;20175;-79
2021/03/16 10:10:48;;;;;;;1999.90;999.90;;;9.00;99.90;;;;;;4960038;29;20155;-79
2021/03/16 10:16:07;;;;;;;1999.90;999.90;;;9.10;99.90;;;;;;4893163;23;20640;-79
2021/03/16 10:18:40;;;;;;;1999.90;999.90;;;9.20;99.90;;;;;;4997466;28;20733;-80
2021/03/16 10:21:37;;;;;;;1999.90;999.90;;;9.40;99.90;;;;;;4981122;28;20174;-80
2021/03/16 10:24:10;;;;;;;1999.90;999.90;;;9.50;99.90;;;;;;4979096;28;20190;-79
2021/03/16 10:27:42;;;;;;;1999.90;999.90;;;9.50;99.90;;;;;;4979475;28;20162;-79
2021/03/16 10:30:13;;;;;;;1999.90;999.90;;;9.40;99.90;;;;;;4902601;29;20282;-80
2021/03/16 10:32:39;;;;;;;1999.90;999.90;;;9.40;99.90;;;;;;4917819;29;20181;-80
2021/03/16 10:35:06;;;;;;;1999.90;999.90;;;9.50;99.90;;;;;;4955501;28;20308;-80
2021/03/16 10:37:46;;;;;;;1999.90;999.90;;;9.50;99.90;;;;;;4997068;28;20176;-80
2021/03/16 10:40:18;;;;;;;1999.90;999.90;;;9.70;99.90;;;;;;4998743;28;20249;-81
2021/03/16 10:42:44;;;;;;;1999.90;999.90;;;9.90;99.90;;;;;;4981040;28;20254;-81
2021/03/16 10:45:10;;;;;;;1999.90;999.90;;;10.20;99.90;;;;;;4998900;28;20190;-81
2021/03/16 10:47:35;;;;;;;1999.90;999.90;;;10.40;99.90;;;;;;4997520;28;20217;-81
2021/03/16 10:50:11;;;;;;;1999.90;999.90;;;10.40;99.90;;;;;;4979997;28;20650;-81
2021/03/16 10:52:36;;;;;;;1999.90;999.90;;;10.30;99.90;;;;;;4999080;28;20147;-81
2021/03/16 10:55:03;;;;;;;1999.90;999.90;;;10.20;99.90;;;;;;4998369;28;20186;-81
2021/03/16 10:57:29;;;;;;;1999.90;999.90;;;10.10;99.90;;;;;;4997909;28;20397;-80
2021/03/16 11:00:04;;;;;;;1999.90;999.90;;;10.10;99.90;;;;;;4998570;28;20169;-81
2021/03/16 11:02:30;;;;;;;1999.90;999.90;;;10.00;99.90;;;;;;4997388;28;20174;-81
2021/03/16 11:04:55;;;;;;;1999.90;999.90;;;9.70;99.90;;;;;;4997554;28;20186;-80
2021/03/16 11:07:27;;;;;;;1999.90;999.90;;;9.50;99.90;;;;;;4997464;28;20642;-81
2021/03/16 11:09:53;;;;;;;1999.90;999.90;;;9.40;99.90;;;;;;4997825;28;20194;-81
2021/03/16 11:12:18;;;;;;;1999.90;999.90;;;9.20;99.90;;;;;;4997496;28;20170;-80
2021/03/16 11:14:45;;;;;;;1999.90;999.90;;;9.10;99.90;;;;;;4997523;28;20210;-81
2021/03/16 11:17:11;;;;;;;1999.90;999.90;;;8.80;99.90;;;;;;4998171;28;20170;-82
2021/03/16 11:19:40;;;;;;;1999.90;999.90;;;8.70;99.90;;;;;;4980151;28;20167;-81
2021/03/16 11:22:08;;;;;;;1999.90;999.90;;;8.70;99.90;;;;;;4980068;28;20163;-81
2021/03/16 11:24:40;;;;;;;1999.90;999.90;;;8.80;99.90;;;;;;4980458;28;20201;-81
2021/03/16 11:27:08;;;;;;;1999.90;999.90;;;8.70;99.90;;;;;;4997690;28;20191;-81
2021/03/16 11:29:34;;;;;;;1999.90;999.90;;;8.80;99.90;;;;;;4980130;28;20170;-81
2021/03/16 11:31:59;;;;;;;1999.90;999.90;;;8.80;99.90;;;;;;4980051;28;20568;-81
2021/03/16 11:34:25;;;;;;;1999.90;999.90;;;8.80;99.90;;;;;;4980178;28;20728;-80
2021/03/16 11:36:51;;;;;;;1999.90;999.90;;;8.90;99.90;;;;;;4980461;28;20725;-81
2021/03/16 11:39:16;;;;;;;1999.90;999.90;;;8.90;99.90;;;;;;4979582;28;20178;-81
2021/03/16 11:41:42;;;;;;;1999.90;999.90;;;9.00;99.90;;;;;;4997156;28;20650;-81
2021/03/16 11:44:08;;;;;;;1999.90;999.90;;;9.10;99.90;;;;;;4997077;28;20190;-80
2021/03/16 11:46:33;;;;;;;1999.90;999.90;;;9.40;99.90;;;;;;4996495;28;20535;-80
2021/03/16 11:48:59;;;;;;;1999.90;999.90;;;9.60;99.90;;;;;;4979409;28;20171;-80
2021/03/16 11:51:25;;;;;;;1999.90;999.90;;;9.70;99.90;;;;;;4997127;28;20182;-80
2021/03/16 11:53:51;;;;;;;1999.90;999.90;;;9.90;99.90;;;;;;4979237;28;20198;-81
2021/03/16 11:56:16;;;;;;;1999.90;999.90;;;10.00;99.90;;;;;;4996870;28;20532;-81
2021/03/16 11:58:42;;;;;;;1999.90;999.90;;;10.20;99.90;;;;;;4996755;28;20166;-81
2021/03/16 12:01:08;;;;;;;1999.90;999.90;;;10.30;99.90;;;;;;4996870;28;20253;-81
2021/03/16 12:03:37;;;;;;;1999.90;999.90;;;10.30;99.90;;;;;;4997054;28;20269;-81
2021/03/16 12:06:03;;;;;;;1999.90;999.90;;;10.50;99.90;;;;;;4996884;28;20167;-80
2021/03/16 12:08:29;;;;;;;1999.90;999.90;;;10.60;99.90;;;;;;4997457;28;20162;-80
2021/03/16 12:10:58;;;;;;;1999.90;999.90;;;10.60;99.90;;;;;;4979904;28;20174;-80
2021/03/16 12:13:24;;;;;;;1999.90;999.90;;;10.50;99.90;;;;;;4997933;28;20686;-81
2021/03/16 12:15:49;;;;;;;1999.90;999.90;;;10.40;99.90;;;;;;4997093;28;20182;-81
2021/03/16 12:18:15;;;;;;;1999.90;999.90;;;10.50;99.90;;;;;;4997025;28;20538;-81
2021/03/16 12:20:41;;;;;;;1999.90;999.90;;;10.50;99.90;;;;;;4997820;28;20522;-81
2021/03/16 12:23:06;;;;;;;1999.90;999.90;;;10.50;99.90;;;;;;4997291;28;20190;-81
2021/03/16 12:25:32;;;;;;;1999.90;999.90;;;10.60;99.90;;;;;;4996554;28;20167;-81